createdAt,value
2017-11-04T00:00:56.920Z,73.90
2017-11-04T00:03:23.680Z,73.80
2017-11-04T00:05:50.570Z,73.80
2017-11-04T00:08:17.332Z,73.90
2017-11-04T00:10:44.071Z,74.00
2017-11-04T00:13:10.796Z,74.00
2017-11-04T00:15:37.559Z,74.00
2017-11-04T00:18:04.299Z,74.00
2017-11-04T00:20:31.141Z,74.90
2017-11-04T00:22:57.886Z,74.00
2017-11-04T00:25:24.630Z,74.10
2017-11-04T00:27:51.397Z,74.00
2017-11-04T00:30:18.141Z,73.90
2017-11-04T00:32:44.872Z,73.90
2017-11-04T00:35:11.608Z,73.80
2017-11-04T00:37:38.374Z,74.00
2017-11-04T00:40:05.893Z,73.70
2017-11-04T00:42:32.663Z,73.60
2017-11-04T00:45:00.172Z,73.60
2017-11-04T00:47:26.915Z,73.40
2017-11-04T00:49:53.660Z,73.40
2017-11-04T00:52:20.424Z,73.30
2017-11-04T00:54:47.152Z,73.30
2017-11-04T00:57:13.882Z,73.40
2017-11-04T00:59:40.629Z,73.30
2017-11-04T01:02:07.360Z,73.30
2017-11-04T01:04:34.184Z,73.50
2017-11-04T01:07:00.930Z,73.40
2017-11-04T01:09:27.682Z,73.40
2017-11-04T01:11:54.432Z,73.20
2017-11-04T01:14:21.239Z,73.50
2017-11-04T01:16:47.972Z,73.30
2017-11-04T01:19:14.830Z,73.20
2017-11-04T01:21:41.561Z,73.20
2017-11-04T01:24:08.299Z,73.20
2017-11-04T01:26:35.059Z,73.10
2017-11-04T01:29:01.908Z,73.20
2017-11-04T01:31:29.025Z,73.30
2017-11-04T01:33:55.785Z,73.30
2017-11-04T01:36:22.513Z,73.30
2017-11-04T01:38:49.255Z,73.20
2017-11-04T01:41:15.995Z,73.40
2017-11-04T01:43:42.770Z,73.40
2017-11-04T01:46:09.495Z,73.40
2017-11-04T01:48:36.247Z,73.50
2017-11-04T01:51:02.982Z,73.60
2017-11-04T01:53:29.733Z,73.70
2017-11-04T01:55:57.216Z,73.90
2017-11-04T01:58:23.989Z,73.70
2017-11-04T02:00:50.697Z,73.90
2017-11-04T02:03:17.447Z,74.10
2017-11-04T02:05:44.212Z,74.10
2017-11-04T02:08:10.956Z,74.20
2017-11-04T02:10:37.747Z,74.40
2017-11-04T02:13:04.484Z,74.50
2017-11-04T02:15:31.998Z,74.70
2017-11-04T02:17:58.756Z,74.60
2017-11-04T02:20:25.480Z,74.70
2017-11-04T02:22:52.216Z,74.70
2017-11-04T02:25:18.955Z,74.90
2017-11-04T02:27:45.708Z,75.00
2017-11-04T02:30:12.460Z,75.10
2017-11-04T02:32:39.962Z,75.20
2017-11-04T02:35:06.695Z,75.10
2017-11-04T02:37:33.434Z,75.20
2017-11-04T02:40:00.164Z,75.20
2017-11-04T02:42:26.943Z,75.20
2017-11-04T02:44:53.684Z,75.30
2017-11-04T02:47:20.471Z,75.40
2017-11-04T02:49:47.203Z,75.40
2017-11-04T02:52:13.941Z,75.40
2017-11-04T02:54:40.786Z,75.60
2017-11-04T02:57:08.268Z,75.80
2017-11-04T02:59:35.032Z,75.60
2017-11-04T03:02:01.765Z,75.60
2017-11-04T03:04:28.521Z,75.70
2017-11-04T03:06:55.256Z,75.70
2017-11-04T03:09:22.030Z,75.80
2017-11-04T03:11:48.765Z,75.70
2017-11-04T03:14:16.279Z,75.60
2017-11-04T03:16:42.999Z,75.60
2017-11-04T03:19:09.755Z,75.80
2017-11-04T03:21:36.503Z,75.90
2017-11-04T03:24:03.250Z,76.10
2017-11-04T03:26:30.756Z,76.10
2017-11-04T03:28:57.506Z,76.00
2017-11-04T03:31:24.485Z,76.10
2017-11-04T03:33:51.211Z,76.10
2017-11-04T03:36:17.966Z,76.20
2017-11-04T03:38:44.696Z,76.40
2017-11-04T03:41:11.459Z,76.50
2017-11-04T03:43:38.959Z,76.80
2017-11-04T03:46:05.738Z,76.80
2017-11-04T03:48:32.543Z,76.90
2017-11-04T03:50:59.276Z,77.20
2017-11-04T03:53:26.036Z,77.20
2017-11-04T03:55:52.780Z,77.30
2017-11-04T03:58:19.540Z,77.40
2017-11-04T04:00:46.265Z,77.50
2017-11-04T04:03:13.006Z,77.50
2017-11-04T04:05:39.756Z,77.50
2017-11-04T04:08:06.493Z,77.60
2017-11-04T04:10:33.233Z,77.50
2017-11-04T04:12:59.976Z,77.40
2017-11-04T04:15:27.497Z,78.40
2017-11-04T04:17:54.238Z,77.30
2017-11-04T04:20:21.004Z,77.30
2017-11-04T04:22:47.745Z,77.30
2017-11-04T04:25:14.573Z,77.40
2017-11-04T04:27:41.332Z,77.50
2017-11-04T04:30:08.116Z,77.50
2017-11-04T04:32:34.848Z,77.60
2017-11-04T04:35:01.577Z,77.60
2017-11-04T04:37:28.344Z,77.60
2017-11-04T04:39:55.117Z,77.80
2017-11-04T04:42:21.872Z,77.80
2017-11-04T04:44:49.396Z,78.00
2017-11-04T04:47:16.139Z,77.90
2017-11-04T04:49:42.906Z,77.90
2017-11-04T04:52:10.408Z,77.80
2017-11-04T04:54:37.151Z,77.80
2017-11-04T04:57:03.890Z,77.90
2017-11-04T04:59:30.642Z,78.00
2017-11-04T05:01:57.372Z,78.10
2017-11-04T05:04:24.233Z,78.10
2017-11-04T05:06:50.987Z,78.00
2017-11-04T05:09:17.766Z,77.90
2017-11-04T05:11:44.496Z,77.80
2017-11-04T05:14:11.243Z,78.50
2017-11-04T05:16:37.995Z,77.80
2017-11-04T05:19:04.835Z,78.10
2017-11-04T05:21:31.587Z,78.00
2017-11-04T05:23:58.337Z,78.10
2017-11-04T05:26:25.076Z,78.20
2017-11-04T05:28:51.848Z,78.20
2017-11-04T05:31:18.575Z,78.20
2017-11-04T05:33:45.327Z,78.30
2017-11-04T05:36:12.057Z,78.40
2017-11-04T05:38:38.809Z,79.20
2017-11-04T05:41:06.335Z,78.30
2017-11-04T05:43:33.075Z,78.30
2017-11-04T05:45:59.828Z,78.30
2017-11-04T05:48:26.590Z,78.20
2017-11-04T05:50:54.102Z,78.10
2017-11-04T05:53:21.060Z,77.90
2017-11-04T05:55:47.791Z,77.90
2017-11-04T05:58:14.604Z,77.90
2017-11-04T06:00:41.340Z,77.70
2017-11-04T06:03:08.081Z,77.60
2017-11-04T06:05:34.857Z,77.60
2017-11-04T06:08:01.579Z,77.80
2017-11-04T06:10:28.328Z,77.70
2017-11-04T06:12:55.107Z,77.80
2017-11-04T06:15:22.776Z,78.10
2017-11-04T06:17:50.276Z,78.20
2017-11-04T06:20:17.007Z,78.20
2017-11-04T06:22:43.756Z,78.20
2017-11-04T06:25:10.490Z,78.40
2017-11-04T06:27:37.276Z,78.40
2017-11-04T06:30:04.010Z,78.50
2017-11-04T06:32:31.534Z,78.20
2017-11-04T06:34:58.273Z,78.10
2017-11-04T06:37:25.169Z,77.70
2017-11-04T06:39:52.667Z,77.30
2017-11-04T06:42:19.443Z,77.20
2017-11-04T06:44:46.188Z,77.40
2017-11-04T06:47:13.697Z,77.50
2017-11-04T06:49:40.462Z,77.50
2017-11-04T06:52:07.189Z,77.50
2017-11-04T06:54:33.927Z,77.70
2017-11-04T06:57:00.847Z,77.80
2017-11-04T06:59:27.963Z,77.80
2017-11-04T07:01:55.460Z,77.60
2017-11-04T07:04:22.204Z,77.50
2017-11-04T07:06:48.968Z,77.50
2017-11-04T07:09:16.480Z,77.50
2017-11-04T07:11:43.220Z,77.50
2017-11-04T07:14:09.962Z,77.40
2017-11-04T07:16:36.889Z,77.40
2017-11-04T07:19:04.377Z,77.50
2017-11-04T07:21:31.141Z,77.40
2017-11-04T07:23:57.881Z,77.60
2017-11-04T07:26:24.612Z,78.20
2017-11-04T07:28:51.456Z,77.80
2017-11-04T07:31:18.184Z,78.10
2017-11-04T07:33:45.082Z,77.80
2017-11-04T07:36:12.623Z,77.80
2017-11-04T07:38:40.173Z,77.70
2017-11-04T07:41:06.953Z,77.60
2017-11-04T07:43:33.678Z,78.50
2017-11-04T07:46:00.429Z,77.60
2017-11-04T07:48:27.177Z,77.40
2017-11-04T07:50:53.935Z,77.40
2017-11-04T07:53:20.882Z,77.00
2017-11-04T07:55:47.635Z,76.90
2017-11-04T07:58:14.377Z,76.80
2017-11-04T08:00:42.643Z,76.60
2017-11-04T08:03:09.402Z,76.60
2017-11-04T08:05:36.131Z,76.50
2017-11-04T08:08:02.904Z,76.30
2017-11-04T08:10:29.653Z,76.60
2017-11-04T08:12:56.392Z,76.10
2017-11-04T08:15:23.332Z,76.00
2017-11-04T08:17:50.073Z,76.00
2017-11-04T08:20:16.824Z,76.10
2017-11-04T08:22:43.640Z,76.10
2017-11-04T08:25:10.390Z,76.00
2017-11-04T08:27:37.437Z,75.60
2017-11-04T08:30:04.172Z,75.20
2017-11-04T08:32:30.919Z,75.30
2017-11-04T08:34:57.670Z,75.20
2017-11-04T08:37:24.437Z,75.20
2017-11-04T08:39:51.168Z,75.20
2017-11-04T08:42:17.907Z,75.10
2017-11-04T08:44:44.672Z,75.10
2017-11-04T08:47:12.196Z,74.00
2017-11-04T08:49:38.967Z,74.00
2017-11-04T08:52:05.716Z,73.90
2017-11-04T08:54:33.215Z,74.20
2017-11-04T08:56:59.964Z,74.00
2017-11-04T08:59:26.713Z,72.40
2017-11-04T09:01:53.569Z,72.00
2017-11-04T09:04:20.359Z,71.80
2017-11-04T09:06:47.856Z,71.60
2017-11-04T09:09:14.627Z,71.50
2017-11-04T09:11:42.158Z,70.80
2017-11-04T09:14:08.898Z,70.60
2017-11-04T09:16:35.654Z,70.70
2017-11-04T09:19:02.391Z,70.60
2017-11-04T09:21:29.123Z,71.20
2017-11-04T09:23:55.887Z,70.80
2017-11-04T09:26:22.611Z,70.60
2017-11-04T09:28:49.365Z,70.60
2017-11-04T09:31:17.081Z,70.20
2017-11-04T09:33:43.858Z,70.10
2017-11-04T09:36:11.384Z,70.00
2017-11-04T09:38:38.142Z,69.90
2017-11-04T09:41:04.883Z,68.80
2017-11-04T09:43:31.882Z,68.70
2017-11-04T09:45:58.650Z,68.50
2017-11-04T09:48:25.377Z,68.50
2017-11-04T09:50:52.172Z,68.10
2017-11-04T09:53:19.693Z,67.90
2017-11-04T09:55:46.481Z,67.90
2017-11-04T09:58:13.244Z,67.90
2017-11-04T10:00:40.051Z,68.60
2017-11-04T10:03:07.563Z,67.10
2017-11-04T10:05:34.334Z,67.00
2017-11-04T10:08:01.832Z,66.80
2017-11-04T10:10:28.594Z,66.70
2017-11-04T10:12:55.342Z,66.90
2017-11-04T10:15:22.097Z,67.00
2017-11-04T10:17:49.616Z,66.20
2017-11-04T10:20:16.410Z,66.30
2017-11-04T10:22:43.215Z,65.80
2017-11-04T10:25:11.012Z,66.20
2017-11-04T10:27:37.772Z,65.80
2017-11-04T10:30:04.521Z,65.80
2017-11-04T10:32:31.293Z,65.80
2017-11-04T10:34:58.034Z,65.80
2017-11-04T10:37:24.782Z,65.30
2017-11-04T10:39:51.535Z,64.80
2017-11-04T10:42:18.433Z,64.60
2017-11-04T10:44:45.180Z,64.50
2017-11-04T10:47:11.915Z,64.90
2017-11-04T10:49:38.665Z,65.30
2017-11-04T10:52:05.405Z,65.00
2017-11-04T10:54:32.199Z,65.00
2017-11-04T10:56:58.955Z,65.10
2017-11-04T10:59:25.707Z,65.10
2017-11-04T11:01:52.464Z,65.30
2017-11-04T11:04:19.225Z,65.10
2017-11-04T11:06:45.972Z,65.00
2017-11-04T11:09:13.486Z,62.10
2017-11-04T11:11:40.235Z,62.10
2017-11-04T11:14:07.002Z,62.40
2017-11-04T11:16:33.756Z,62.40
2017-11-04T11:19:01.282Z,63.60
2017-11-04T11:21:28.022Z,63.50
2017-11-04T11:23:54.761Z,63.70
2017-11-04T11:26:21.552Z,63.10
2017-11-04T11:28:48.448Z,63.20
2017-11-04T11:31:15.988Z,62.90
2017-11-04T11:33:42.722Z,62.80
2017-11-04T11:36:09.484Z,62.40
2017-11-04T11:38:36.215Z,62.30
2017-11-04T11:41:02.960Z,62.00
2017-11-04T11:43:29.725Z,62.10
2017-11-04T11:45:57.266Z,61.70
2017-11-04T11:48:24.018Z,61.50
2017-11-04T11:50:51.556Z,62.00
2017-11-04T11:53:18.294Z,61.90
2017-11-04T11:55:45.055Z,62.20
2017-11-04T11:58:12.564Z,60.70
2017-11-04T12:00:39.305Z,60.70
2017-11-04T12:03:06.067Z,60.30
2017-11-04T12:05:32.804Z,60.40
2017-11-04T12:08:00.329Z,61.30
2017-11-04T12:10:27.103Z,61.30
2017-11-04T12:12:53.856Z,61.40
2017-11-04T12:15:20.624Z,61.10
2017-11-04T12:17:48.132Z,61.80
2017-11-04T12:20:14.968Z,61.80
2017-11-04T12:22:41.748Z,61.40
2017-11-04T12:25:09.282Z,61.20
2017-11-04T12:27:36.016Z,61.20
2017-11-04T12:30:02.782Z,61.70
2017-11-04T12:32:30.366Z,60.20
2017-11-04T12:34:57.124Z,60.20
2017-11-04T12:37:23.844Z,60.10
2017-11-04T12:39:50.760Z,60.40
2017-11-04T12:42:18.122Z,60.90
2017-11-04T12:44:45.648Z,60.00
2017-11-04T12:47:12.400Z,60.00
2017-11-04T12:49:39.912Z,59.90
2017-11-04T12:52:06.667Z,59.70
2017-11-04T12:54:33.476Z,59.50
2017-11-04T12:57:00.243Z,59.60
2017-11-04T12:59:26.981Z,60.80
2017-11-04T13:01:53.732Z,60.20
2017-11-04T13:04:20.479Z,60.00
2017-11-04T13:06:47.225Z,59.80
2017-11-04T13:09:14.741Z,60.80
2017-11-04T13:11:41.495Z,60.10
2017-11-04T13:14:08.244Z,60.10
2017-11-04T13:16:34.997Z,60.50
2017-11-04T13:19:01.772Z,60.30
2017-11-04T13:21:29.268Z,60.50
2017-11-04T13:23:56.066Z,60.40
2017-11-04T13:26:22.812Z,60.70
2017-11-04T13:28:49.570Z,60.50
2017-11-04T13:31:16.357Z,60.40
2017-11-04T13:33:43.108Z,60.80
2017-11-04T13:36:10.634Z,61.00
2017-11-04T13:38:37.405Z,61.00
2017-11-04T13:41:04.936Z,61.00
2017-11-04T13:43:32.453Z,60.70
2017-11-04T13:45:59.225Z,60.60
2017-11-04T13:48:25.956Z,60.80
2017-11-04T13:50:52.728Z,61.20
2017-11-04T13:53:20.281Z,61.00
2017-11-04T13:55:47.006Z,60.80
2017-11-04T13:58:13.756Z,60.90
2017-11-04T14:00:41.262Z,61.00
2017-11-04T14:03:08.036Z,61.00
2017-11-04T14:05:34.797Z,61.30
2017-11-04T14:08:02.318Z,61.90
2017-11-04T14:10:29.077Z,61.00
2017-11-04T14:12:55.870Z,61.20
2017-11-04T14:15:22.618Z,61.00
2017-11-04T14:17:49.376Z,60.60
2017-11-04T14:20:16.169Z,60.40
2017-11-04T14:22:42.888Z,60.30
2017-11-04T14:25:10.425Z,59.30
2017-11-04T14:27:37.196Z,59.30
2017-11-04T14:30:04.692Z,58.90
2017-11-04T14:32:31.448Z,58.90
2017-11-04T14:34:58.204Z,59.10
2017-11-04T14:37:24.962Z,58.90
2017-11-04T14:39:51.746Z,58.70
2017-11-04T14:42:18.486Z,59.00
2017-11-04T14:44:45.221Z,58.90
2017-11-04T14:47:11.984Z,58.90
2017-11-04T14:49:38.716Z,59.30
2017-11-04T14:52:05.539Z,59.10
2017-11-04T14:54:32.309Z,59.40
2017-11-04T14:56:59.047Z,59.60
2017-11-04T14:59:25.948Z,60.20
2017-11-04T15:01:52.684Z,59.90
2017-11-04T15:04:20.359Z,60.10
2017-11-04T15:06:47.832Z,59.50
2017-11-04T15:09:14.583Z,59.40
2017-11-04T15:11:41.332Z,59.70
2017-11-04T15:14:08.087Z,59.50
2017-11-04T15:16:34.811Z,59.20
2017-11-04T15:19:01.552Z,59.40
2017-11-04T15:21:28.323Z,59.70
2017-11-04T15:23:55.844Z,60.50
2017-11-04T15:26:22.597Z,60.30
2017-11-04T15:28:49.345Z,60.00
2017-11-04T15:31:16.857Z,61.00
2017-11-04T15:33:43.607Z,60.10
2017-11-04T15:36:10.342Z,60.30
2017-11-04T15:38:37.148Z,61.00
2017-11-04T15:41:04.624Z,61.30
2017-11-04T15:43:31.366Z,61.20
2017-11-04T15:45:58.115Z,60.70
2017-11-04T15:48:24.869Z,61.00
2017-11-04T15:50:51.617Z,60.70
2017-11-04T15:53:18.405Z,60.10
2017-11-04T15:55:45.348Z,60.10
2017-11-04T15:58:12.096Z,60.00
2017-11-04T16:00:38.844Z,59.80
2017-11-04T16:03:05.629Z,60.40
2017-11-04T16:05:32.369Z,60.70
2017-11-04T16:07:59.110Z,60.70
2017-11-04T16:10:25.879Z,60.70
2017-11-04T16:12:53.444Z,60.70
2017-11-04T16:15:20.191Z,60.60
2017-11-04T16:17:46.921Z,60.90
2017-11-04T16:20:13.707Z,61.00
2017-11-04T16:22:40.516Z,61.00
2017-11-04T16:25:07.997Z,61.50
2017-11-04T16:27:34.761Z,61.50
2017-11-04T16:30:01.504Z,62.50
2017-11-04T16:32:28.241Z,63.50
2017-11-04T16:34:54.969Z,64.20
2017-11-04T16:37:22.538Z,64.80
2017-11-04T16:39:50.065Z,65.00
2017-11-04T16:42:16.840Z,65.10
2017-11-04T16:44:43.582Z,64.60
2017-11-04T16:47:10.316Z,64.70
2017-11-04T16:49:37.073Z,65.80
2017-11-04T16:52:04.605Z,64.70
2017-11-04T16:54:31.374Z,64.60
2017-11-04T16:56:58.108Z,64.60
2017-11-04T16:59:25.605Z,65.10
2017-11-04T17:01:52.340Z,65.00
2017-11-04T17:04:19.104Z,65.20
2017-11-04T17:06:45.842Z,65.70
2017-11-04T17:09:12.583Z,65.60
2017-11-04T17:11:39.409Z,65.80
2017-11-04T17:14:06.148Z,66.00
2017-11-04T17:16:32.894Z,66.00
2017-11-04T17:18:59.652Z,67.10
2017-11-04T17:21:26.454Z,66.30
2017-11-04T17:23:53.181Z,66.50
2017-11-04T17:26:19.946Z,66.50
2017-11-04T17:28:46.681Z,66.50
2017-11-04T17:31:13.466Z,66.80
2017-11-04T17:33:40.980Z,66.90
2017-11-04T17:36:07.801Z,66.90
2017-11-04T17:38:34.565Z,67.20
2017-11-04T17:41:01.317Z,68.40
2017-11-04T17:43:28.056Z,67.90
2017-11-04T17:45:54.795Z,68.10
2017-11-04T17:48:22.309Z,68.70
2017-11-04T17:50:49.056Z,68.80
2017-11-04T17:53:15.861Z,69.00
2017-11-04T17:55:43.394Z,69.50
2017-11-04T17:58:10.149Z,69.50
2017-11-04T18:00:37.112Z,69.80
2017-11-04T18:03:04.584Z,70.20
2017-11-04T18:05:31.332Z,70.10
2017-11-04T18:07:58.064Z,71.20
2017-11-04T18:10:24.825Z,72.10
2017-11-04T18:12:51.549Z,72.50
2017-11-04T18:15:18.350Z,73.40
2017-11-04T18:17:45.866Z,74.50
2017-11-04T18:20:12.603Z,74.30
2017-11-04T18:22:39.383Z,74.30
2017-11-04T18:25:06.149Z,74.20
2017-11-04T18:27:32.912Z,74.50
2017-11-04T18:29:59.666Z,74.30
2017-11-04T18:32:26.412Z,73.80
2017-11-04T18:34:53.177Z,73.60
2017-11-04T18:37:20.680Z,73.50
2017-11-04T18:39:47.472Z,73.40
2017-11-04T18:42:15.002Z,73.30
2017-11-04T18:44:41.774Z,73.10
2017-11-04T18:47:09.264Z,73.10
2017-11-04T18:49:36.046Z,72.30
2017-11-04T18:52:02.806Z,72.40
2017-11-04T18:54:30.376Z,72.50
2017-11-04T18:56:57.884Z,72.30
2017-11-04T18:59:25.605Z,72.20
2017-11-04T19:01:53.108Z,71.90
2017-11-04T19:04:19.853Z,71.80
2017-11-04T19:06:46.620Z,71.70
2017-11-04T19:09:13.818Z,71.70
2017-11-04T19:11:40.585Z,71.30
2017-11-04T19:14:07.381Z,71.30
2017-11-04T19:16:34.118Z,71.70
2017-11-04T19:19:00.873Z,71.50
2017-11-04T19:21:27.642Z,71.50
2017-11-04T19:23:54.425Z,71.70
2017-11-04T19:26:21.182Z,71.70
2017-11-04T19:28:47.909Z,71.70
2017-11-04T19:31:14.671Z,71.70
2017-11-04T19:33:41.559Z,71.90
2017-11-04T19:36:08.310Z,72.20
2017-11-04T19:38:36.055Z,72.20
2017-11-04T19:41:02.819Z,72.10
2017-11-04T19:43:30.509Z,72.20
2017-11-04T19:45:57.249Z,73.00
2017-11-04T19:48:24.031Z,72.10
2017-11-04T19:50:50.803Z,72.30
2017-11-04T19:53:17.576Z,72.00
2017-11-04T19:55:44.345Z,72.10
2017-11-04T19:58:11.091Z,72.20
2017-11-04T20:00:37.874Z,72.00
2017-11-04T20:03:04.641Z,72.20
2017-11-04T20:05:31.396Z,72.40
2017-11-04T20:07:58.204Z,72.40
2017-11-04T20:10:24.948Z,72.60
2017-11-04T20:12:51.725Z,73.10
2017-11-04T20:15:18.497Z,73.10
2017-11-04T20:17:45.237Z,73.10
2017-11-04T20:20:11.980Z,73.10
2017-11-04T20:22:39.514Z,73.00
2017-11-04T20:25:07.029Z,72.80
2017-11-04T20:27:33.764Z,72.70
2017-11-04T20:30:00.509Z,72.70
2017-11-04T20:32:27.260Z,72.30
2017-11-04T20:34:54.047Z,72.20
2017-11-04T20:37:20.817Z,72.50
2017-11-04T20:39:47.592Z,72.00
2017-11-04T20:42:14.333Z,71.80
2017-11-04T20:44:41.082Z,71.80
2017-11-04T20:47:08.582Z,71.40
2017-11-04T20:49:35.484Z,71.20
2017-11-04T20:52:02.265Z,71.20
2017-11-04T20:54:29.004Z,71.80
2017-11-04T20:56:55.761Z,70.90
2017-11-04T20:59:22.546Z,70.70
2017-11-04T21:01:50.059Z,70.70
2017-11-04T21:04:16.816Z,70.60
2017-11-04T21:06:43.576Z,70.40
2017-11-04T21:09:10.311Z,70.60
2017-11-04T21:11:37.090Z,70.30
2017-11-04T21:14:03.830Z,70.40
2017-11-04T21:16:30.609Z,70.70
2017-11-04T21:18:57.352Z,70.60
2017-11-04T21:21:24.120Z,70.80
2017-11-04T21:23:51.684Z,71.00
2017-11-04T21:26:19.218Z,71.00
2017-11-04T21:28:45.985Z,71.00
2017-11-04T21:31:12.937Z,70.90
2017-11-04T21:33:39.704Z,70.80
2017-11-04T21:36:06.454Z,70.60
2017-11-04T21:38:33.168Z,70.40
2017-11-04T21:40:59.925Z,70.40
2017-11-04T21:43:26.705Z,70.70
2017-11-04T21:45:54.191Z,71.20
2017-11-04T21:48:21.132Z,70.90
2017-11-04T21:50:48.615Z,71.30
2017-11-04T21:53:15.381Z,71.30
2017-11-04T21:55:42.133Z,71.40
2017-11-04T21:58:08.880Z,71.70
2017-11-04T22:00:36.414Z,71.70
2017-11-04T22:03:03.259Z,71.60
2017-11-04T22:05:30.055Z,71.60
2017-11-04T22:07:56.796Z,71.70
2017-11-04T22:10:23.609Z,71.90
2017-11-04T22:12:51.137Z,72.20
2017-11-04T22:15:17.866Z,72.10
2017-11-04T22:17:44.619Z,72.10
2017-11-04T22:20:11.364Z,71.90
2017-11-04T22:22:38.128Z,71.90
2017-11-04T22:25:05.629Z,71.80
2017-11-04T22:27:32.476Z,71.80
2017-11-04T22:29:59.208Z,71.80
2017-11-04T22:32:25.956Z,71.80
2017-11-04T22:34:52.751Z,71.90
2017-11-04T22:37:20.283Z,71.70
2017-11-04T22:39:47.214Z,71.60
2017-11-04T22:42:13.957Z,71.50
2017-11-04T22:44:40.717Z,71.50
2017-11-04T22:47:08.231Z,71.50
2017-11-04T22:49:35.118Z,71.50
2017-11-04T22:52:02.705Z,71.40
2017-11-04T22:54:29.475Z,71.40
2017-11-04T22:56:56.219Z,71.50
2017-11-04T22:59:22.988Z,71.50
2017-11-04T23:01:50.570Z,71.80
2017-11-04T23:04:18.074Z,71.70
2017-11-04T23:06:45.953Z,71.50
2017-11-04T23:09:12.725Z,71.80
2017-11-04T23:11:39.504Z,71.70
2017-11-04T23:14:06.265Z,71.90
2017-11-04T23:16:33.001Z,71.90
2017-11-04T23:18:59.840Z,72.50
2017-11-04T23:21:26.576Z,73.10
2017-11-04T23:23:53.471Z,73.60
2017-11-04T23:26:20.947Z,74.00
2017-11-04T23:28:47.784Z,73.90
2017-11-04T23:31:14.545Z,73.80
2017-11-04T23:33:41.301Z,74.00
2017-11-04T23:36:08.057Z,74.10
2017-11-04T23:38:34.819Z,75.00
2017-11-04T23:41:01.582Z,74.90
2017-11-04T23:43:28.364Z,75.40
2017-11-04T23:45:55.108Z,76.00
2017-11-04T23:48:21.846Z,76.50
2017-11-04T23:50:49.373Z,77.10
2017-11-04T23:53:16.113Z,77.00
2017-11-04T23:55:42.856Z,76.80
2017-11-04T23:58:09.605Z,77.10
